sensor_id;sensor_type;location;lat;lon;timestamp;pressure;altitude;pressure_sealevel;temperature;humidity
34983;BME280;21187;50.976;13.720;2022-11-14T00:03:05;98793.78;;;9.19;57.22
34983;BME280;21187;50.976;13.720;2022-11-14T00:08:25;98794.91;;;9.18;57.18
34983;BME280;21187;50.976;13.720;2022-11-14T00:13:46;98792.66;;;9.20;56.57
34983;BME280;21187;50.976;13.720;2022-11-14T00:19:06;98778.03;;;9.21;56.99
34983;BME280;21187;50.976;13.720;2022-11-14T00:24:26;98774.50;;;9.29;57.11
34983;BME280;21187;50.976;13.720;2022-11-14T00:29:47;98772.59;;;9.29;56.90
34983;BME280;21187;50.976;13.720;2022-11-14T00:35:08;98760.53;;;9.27;57.50
34983;BME280;21187;50.976;13.720;2022-11-14T00:40:28;98769.75;;;9.26;57.93
34983;BME280;21187;50.976;13.720;2022-11-14T00:45:48;98763.69;;;9.29;57.86
34983;BME280;21187;50.976;13.720;2022-11-14T00:51:09;98762.38;;;9.35;57.90
34983;BME280;21187;50.976;13.720;2022-11-14T00:56:29;98760.16;;;9.37;57.32
34983;BME280;21187;50.976;13.720;2022-11-14T01:01:49;98755.06;;;9.36;56.80
34983;BME280;21187;50.976;13.720;2022-11-14T01:07:16;98756.97;;;9.35;57.00
34983;BME280;21187;50.976;13.720;2022-11-14T01:12:36;98737.28;;;9.35;56.65
34983;BME280;21187;50.976;13.720;2022-11-14T01:17:57;98730.59;;;9.32;57.05
34983;BME280;21187;50.976;13.720;2022-11-14T01:23:17;98716.47;;;9.26;57.40
34983;BME280;21187;50.976;13.720;2022-11-14T01:28:38;98713.66;;;9.23;56.90
34983;BME280;21187;50.976;13.720;2022-11-14T01:33:59;98713.19;;;9.21;57.61
34983;BME280;21187;50.976;13.720;2022-11-14T01:39:19;98698.06;;;9.20;57.53
34983;BME280;21187;50.976;13.720;2022-11-14T01:50:04;98687.56;;;9.27;58.11
34983;BME280;21187;50.976;13.720;2022-11-14T01:55:24;98679.31;;;9.23;57.78
34983;BME280;21187;50.976;13.720;2022-11-14T02:00:46;98680.31;;;9.19;58.02
34983;BME280;21187;50.976;13.720;2022-11-14T02:06:08;98664.47;;;9.29;57.43
34983;BME280;21187;50.976;13.720;2022-11-14T02:11:37;98647.25;;;9.34;57.30
34983;BME280;21187;50.976;13.720;2022-11-14T02:16:58;98638.63;;;9.41;57.84
34983;BME280;21187;50.976;13.720;2022-11-14T02:22:41;98633.16;;;9.28;57.87
34983;BME280;21187;50.976;13.720;2022-11-14T02:28:01;98638.44;;;9.25;58.11
34983;BME280;21187;50.976;13.720;2022-11-14T02:33:22;98630.78;;;9.27;58.41
34983;BME280;21187;50.976;13.720;2022-11-14T02:38:42;98621.56;;;9.28;58.43
34983;BME280;21187;50.976;13.720;2022-11-14T02:44:03;98613.91;;;9.30;58.29
34983;BME280;21187;50.976;13.720;2022-11-14T02:49:23;98620.72;;;9.36;58.21
34983;BME280;21187;50.976;13.720;2022-11-14T02:54:43;98615.75;;;9.38;58.34
34983;BME280;21187;50.976;13.720;2022-11-14T03:00:08;98617.81;;;9.41;58.61
34983;BME280;21187;50.976;13.720;2022-11-14T03:05:34;98614.44;;;9.44;58.12
34983;BME280;21187;50.976;13.720;2022-11-14T03:10:55;98609.03;;;9.44;58.28
34983;BME280;21187;50.976;13.720;2022-11-14T03:16:15;98620.13;;;9.52;58.24
34983;BME280;21187;50.976;13.720;2022-11-14T03:21:35;98598.94;;;9.54;58.21
34983;BME280;21187;50.976;13.720;2022-11-14T03:26:56;98598.59;;;9.55;58.10
34983;BME280;21187;50.976;13.720;2022-11-14T03:32:16;98590.94;;;9.57;58.16
34983;BME280;21187;50.976;13.720;2022-11-14T03:37:36;98594.44;;;9.58;58.05
34983;BME280;21187;50.976;13.720;2022-11-14T03:42:58;98590.41;;;9.64;58.25
34983;BME280;21187;50.976;13.720;2022-11-14T03:48:19;98589.72;;;9.67;58.07
34983;BME280;21187;50.976;13.720;2022-11-14T03:53:39;98583.97;;;9.69;58.21
34983;BME280;21187;50.976;13.720;2022-11-14T03:58:59;98573.63;;;9.71;58.13
34983;BME280;21187;50.976;13.720;2022-11-14T04:04:20;98562.13;;;9.74;57.64
34983;BME280;21187;50.976;13.720;2022-11-14T04:09:40;98555.28;;;9.76;57.91
34983;BME280;21187;50.976;13.720;2022-11-14T04:15:00;98547.63;;;9.78;57.78
34983;BME280;21187;50.976;13.720;2022-11-14T04:20:21;98545.38;;;9.80;58.37
34983;BME280;21187;50.976;13.720;2022-11-14T04:25:45;98539.94;;;9.80;57.62
34983;BME280;21187;50.976;13.720;2022-11-14T04:31:05;98534.09;;;9.78;58.12
34983;BME280;21187;50.976;13.720;2022-11-14T04:36:25;98524.41;;;9.77;57.79
34983;BME280;21187;50.976;13.720;2022-11-14T04:41:46;98520.25;;;9.92;57.25
34983;BME280;21187;50.976;13.720;2022-11-14T04:47:06;98508.66;;;9.92;57.25
34983;BME280;21187;50.976;13.720;2022-11-14T04:52:26;98504.47;;;9.82;57.48
34983;BME280;21187;50.976;13.720;2022-11-14T04:57:47;98502.06;;;9.68;57.82
34983;BME280;21187;50.976;13.720;2022-11-14T05:03:12;98505.47;;;9.65;57.61
34983;BME280;21187;50.976;13.720;2022-11-14T05:08:33;98500.63;;;9.71;58.12
34983;BME280;21187;50.976;13.720;2022-11-14T05:13:53;98503.88;;;9.64;57.82
34983;BME280;21187;50.976;13.720;2022-11-14T05:19:14;98501.38;;;9.59;58.38
34983;BME280;21187;50.976;13.720;2022-11-14T05:24:34;98497.78;;;9.67;57.37
34983;BME280;21187;50.976;13.720;2022-11-14T05:29:55;98502.84;;;9.56;57.80
34983;BME280;21187;50.976;13.720;2022-11-14T05:35:15;98502.72;;;9.53;57.86
34983;BME280;21187;50.976;13.720;2022-11-14T05:40:36;98499.56;;;9.51;58.16
34983;BME280;21187;50.976;13.720;2022-11-14T05:46:01;98492.56;;;9.49;57.97
34983;BME280;21187;50.976;13.720;2022-11-14T05:51:21;98501.81;;;9.48;58.65
34983;BME280;21187;50.976;13.720;2022-11-14T05:56:42;98502.13;;;9.47;58.59
34983;BME280;21187;50.976;13.720;2022-11-14T06:02:02;98512.19;;;9.46;58.22
34983;BME280;21187;50.976;13.720;2022-11-14T06:07:23;98529.50;;;9.45;58.17
34983;BME280;21187;50.976;13.720;2022-11-14T06:12:43;98531.75;;;9.43;57.83
34983;BME280;21187;50.976;13.720;2022-11-14T06:18:03;98541.00;;;9.42;58.62
34983;BME280;21187;50.976;13.720;2022-11-14T06:23:23;98544.16;;;9.44;57.65
34983;BME280;21187;50.976;13.720;2022-11-14T06:28:44;98546.84;;;9.44;58.21
34983;BME280;21187;50.976;13.720;2022-11-14T06:34:04;98544.81;;;9.41;58.24
34983;BME280;21187;50.976;13.720;2022-11-14T06:39:25;98553.28;;;9.40;58.89
34983;BME280;21187;50.976;13.720;2022-11-14T06:44:45;98549.22;;;9.46;58.55
34983;BME280;21187;50.976;13.720;2022-11-14T06:50:06;98552.97;;;9.54;58.23
34983;BME280;21187;50.976;13.720;2022-11-14T06:55:27;98550.75;;;9.68;58.45
34983;BME280;21187;50.976;13.720;2022-11-14T07:00:47;98566.78;;;9.73;58.94
34983;BME280;21187;50.976;13.720;2022-11-14T07:06:13;98562.41;;;9.81;58.32
34983;BME280;21187;50.976;13.720;2022-11-14T07:11:34;98559.84;;;9.97;58.28
34983;BME280;21187;50.976;13.720;2022-11-14T07:16:54;98554.13;;;10.11;58.58
34983;BME280;21187;50.976;13.720;2022-11-14T07:22:14;98558.50;;;10.03;58.17
34983;BME280;21187;50.976;13.720;2022-11-14T07:27:35;98561.50;;;10.02;58.16
34983;BME280;21187;50.976;13.720;2022-11-14T07:32:56;98558.28;;;10.08;58.74
34983;BME280;21187;50.976;13.720;2022-11-14T07:38:17;98558.75;;;10.23;58.65
34983;BME280;21187;50.976;13.720;2022-11-14T07:43:37;98562.03;;;10.41;58.06
34983;BME280;21187;50.976;13.720;2022-11-14T07:48:58;98558.78;;;10.60;57.83
34983;BME280;21187;50.976;13.720;2022-11-14T07:54:18;98551.50;;;10.76;57.43
34983;BME280;21187;50.976;13.720;2022-11-14T07:59:39;98553.06;;;10.90;57.57
34983;BME280;21187;50.976;13.720;2022-11-14T08:04:59;98549.00;;;10.96;57.28
34983;BME280;21187;50.976;13.720;2022-11-14T08:10:20;98538.56;;;11.10;57.32
34983;BME280;21187;50.976;13.720;2022-11-14T08:15:40;98551.81;;;11.28;56.86
34983;BME280;21187;50.976;13.720;2022-11-14T08:21:04;98557.00;;;11.33;56.39
34983;BME280;21187;50.976;13.720;2022-11-14T08:26:25;98568.56;;;11.30;56.35
34983;BME280;21187;50.976;13.720;2022-11-14T08:31:53;98571.69;;;11.32;56.48
34983;BME280;21187;50.976;13.720;2022-11-14T08:37:19;98569.72;;;11.17;56.58
34983;BME280;21187;50.976;13.720;2022-11-14T08:42:39;98555.41;;;11.32;56.71
34983;BME280;21187;50.976;13.720;2022-11-14T08:47:59;98556.69;;;11.51;56.09
34983;BME280;21187;50.976;13.720;2022-11-14T08:53:20;98563.03;;;11.55;56.10
34983;BME280;21187;50.976;13.720;2022-11-14T08:58:40;98561.63;;;11.61;55.92
34983;BME280;21187;50.976;13.720;2022-11-14T09:04:00;98551.88;;;11.72;55.62
34983;BME280;21187;50.976;13.720;2022-11-14T09:09:21;98548.91;;;11.77;55.69
34983;BME280;21187;50.976;13.720;2022-11-14T09:14:41;98553.81;;;11.88;55.41
34983;BME280;21187;50.976;13.720;2022-11-14T09:20:02;98548.69;;;11.98;55.21
34983;BME280;21187;50.976;13.720;2022-11-14T09:25:22;98538.34;;;12.04;54.88
34983;BME280;21187;50.976;13.720;2022-11-14T09:30:42;98528.34;;;12.08;54.82
34983;BME280;21187;50.976;13.720;2022-11-14T09:36:05;98516.00;;;11.95;54.73
34983;BME280;21187;50.976;13.720;2022-11-14T09:47:29;98491.09;;;11.93;55.00
34983;BME280;21187;50.976;13.720;2022-11-14T09:52:56;98495.63;;;12.01;54.83
34983;BME280;21187;50.976;13.720;2022-11-14T09:58:20;98494.47;;;12.02;54.77
34983;BME280;21187;50.976;13.720;2022-11-14T10:04:06;98497.78;;;12.11;54.69
34983;BME280;21187;50.976;13.720;2022-11-14T10:26:25;98496.75;;;12.00;54.38
34983;BME280;21187;50.976;13.720;2022-11-14T10:32:10;98490.97;;;12.02;54.26
34983;BME280;21187;50.976;13.720;2022-11-14T10:43:41;98492.09;;;12.17;54.32
34983;BME280;21187;50.976;13.720;2022-11-14T10:49:18;98483.34;;;12.07;54.22
34983;BME280;21187;50.976;13.720;2022-11-14T10:54:50;98465.31;;;11.99;54.08
34983;BME280;21187;50.976;13.720;2022-11-14T11:00:17;98471.25;;;11.89;54.35
34983;BME280;21187;50.976;13.720;2022-11-14T11:05:52;98461.53;;;11.88;54.38
34983;BME280;21187;50.976;13.720;2022-11-14T11:11:19;98473.34;;;11.79;54.56
34983;BME280;21187;50.976;13.720;2022-11-14T11:17:27;98461.53;;;11.88;54.32
34983;BME280;21187;50.976;13.720;2022-11-14T11:28:22;98457.25;;;12.03;54.36
34983;BME280;21187;50.976;13.720;2022-11-14T11:33:43;98435.34;;;12.11;54.29
34983;BME280;21187;50.976;13.720;2022-11-14T11:39:03;98433.66;;;12.23;53.94
34983;BME280;21187;50.976;13.720;2022-11-14T11:44:32;98438.09;;;12.31;53.71
34983;BME280;21187;50.976;13.720;2022-11-14T11:49:55;98434.69;;;12.34;53.73
34983;BME280;21187;50.976;13.720;2022-11-14T11:55:17;98443.44;;;12.43;53.44
34983;BME280;21187;50.976;13.720;2022-11-14T12:00:39;98449.88;;;12.55;53.37
34983;BME280;21187;50.976;13.720;2022-11-14T12:06:18;98427.44;;;12.58;53.30
34983;BME280;21187;50.976;13.720;2022-11-14T12:11:54;98429.78;;;12.59;53.13
34983;BME280;21187;50.976;13.720;2022-11-14T12:18:03;98423.72;;;12.66;52.89
34983;BME280;21187;50.976;13.720;2022-11-14T12:34:46;98402.13;;;13.59;52.03
34983;BME280;21187;50.976;13.720;2022-11-14T12:40:38;98394.59;;;15.31;48.94
34983;BME280;21187;50.976;13.720;2022-11-14T12:46:00;98400.34;;;17.22;45.78
34983;BME280;21187;50.976;13.720;2022-11-14T12:56:58;98379.66;;;18.00;43.03
34983;BME280;21187;50.976;13.720;2022-11-14T13:13:59;98372.56;;;20.76;39.80
34983;BME280;21187;50.976;13.720;2022-11-14T13:19:45;98384.88;;;21.54;38.08
34983;BME280;21187;50.976;13.720;2022-11-14T13:25:24;98386.88;;;21.97;37.54
34983;BME280;21187;50.976;13.720;2022-11-14T13:31:04;98382.38;;;22.27;38.04
34983;BME280;21187;50.976;13.720;2022-11-14T13:42:42;98389.47;;;23.91;36.00
34983;BME280;21187;50.976;13.720;2022-11-14T13:53:50;98374.97;;;23.37;35.72
34983;BME280;21187;50.976;13.720;2022-11-14T14:05:33;98372.03;;;19.33;39.58
34983;BME280;21187;50.976;13.720;2022-11-14T14:17:08;98366.13;;;15.32;43.86
34983;BME280;21187;50.976;13.720;2022-11-14T14:28:18;98362.16;;;13.90;45.81
34983;BME280;21187;50.976;13.720;2022-11-14T14:33:45;98357.34;;;13.53;46.36
34983;BME280;21187;50.976;13.720;2022-11-14T14:39:19;98345.78;;;13.36;46.98
34983;BME280;21187;50.976;13.720;2022-11-14T14:44:40;98359.56;;;13.24;46.95
34983;BME280;21187;50.976;13.720;2022-11-14T14:50:03;98380.31;;;13.12;47.23
34983;BME280;21187;50.976;13.720;2022-11-14T14:55:28;98352.66;;;13.07;47.36
34983;BME280;21187;50.976;13.720;2022-11-14T15:01:03;98360.47;;;12.89;47.91
34983;BME280;21187;50.976;13.720;2022-11-14T15:06:31;98350.19;;;12.78;48.09
34983;BME280;21187;50.976;13.720;2022-11-14T15:11:54;98354.66;;;12.67;48.19
34983;BME280;21187;50.976;13.720;2022-11-14T15:17:16;98345.78;;;12.51;48.48
34983;BME280;21187;50.976;13.720;2022-11-14T15:22:36;98350.34;;;12.27;49.08
34983;BME280;21187;50.976;13.720;2022-11-14T15:27:58;98362.75;;;12.08;49.53
34983;BME280;21187;50.976;13.720;2022-11-14T15:33:31;98350.91;;;11.97;49.68
34983;BME280;21187;50.976;13.720;2022-11-14T15:39:03;98360.78;;;11.89;50.10
34983;BME280;21187;50.976;13.720;2022-11-14T15:44:31;98357.53;;;11.83;50.06
34983;BME280;21187;50.976;13.720;2022-11-14T15:50:29;98360.50;;;11.78;50.19
34983;BME280;21187;50.976;13.720;2022-11-14T15:55:50;98359.91;;;11.69;50.43
34983;BME280;21187;50.976;13.720;2022-11-14T16:01:21;98360.22;;;11.64;50.99
34983;BME280;21187;50.976;13.720;2022-11-14T16:06:43;98358.44;;;11.56;50.99
34983;BME280;21187;50.976;13.720;2022-11-14T16:12:04;98359.16;;;11.53;51.17
34983;BME280;21187;50.976;13.720;2022-11-14T16:17:25;98361.16;;;11.56;51.07
34983;BME280;21187;50.976;13.720;2022-11-14T16:22:46;98356.69;;;11.63;50.99
34983;BME280;21187;50.976;13.720;2022-11-14T16:28:07;98355.66;;;11.68;50.90
34983;BME280;21187;50.976;13.720;2022-11-14T16:33:27;98369.91;;;11.65;50.90
34983;BME280;21187;50.976;13.720;2022-11-14T16:38:48;98350.25;;;11.52;51.54
34983;BME280;21187;50.976;13.720;2022-11-14T16:44:14;98341.16;;;11.44;51.67
34983;BME280;21187;50.976;13.720;2022-11-14T16:49:35;98352.94;;;11.36;51.92
34983;BME280;21187;50.976;13.720;2022-11-14T16:54:55;98348.69;;;11.35;51.86
34983;BME280;21187;50.976;13.720;2022-11-14T17:00:16;98351.72;;;11.33;51.82
34983;BME280;21187;50.976;13.720;2022-11-14T17:06:06;98350.50;;;11.31;52.14
34983;BME280;21187;50.976;13.720;2022-11-14T17:11:26;98348.75;;;11.23;52.11
34983;BME280;21187;50.976;13.720;2022-11-14T17:16:48;98350.56;;;11.19;52.38
34983;BME280;21187;50.976;13.720;2022-11-14T17:22:08;98350.84;;;11.13;52.23
34983;BME280;21187;50.976;13.720;2022-11-14T17:27:29;98355.72;;;11.08;52.68
34983;BME280;21187;50.976;13.720;2022-11-14T17:32:49;98349.53;;;11.07;52.39
34983;BME280;21187;50.976;13.720;2022-11-14T17:38:15;98347.97;;;11.06;52.48
34983;BME280;21187;50.976;13.720;2022-11-14T17:43:35;98349.09;;;11.05;52.59
34983;BME280;21187;50.976;13.720;2022-11-14T17:48:59;98349.44;;;11.04;52.70
34983;BME280;21187;50.976;13.720;2022-11-14T17:54:19;98358.19;;;10.97;52.94
34983;BME280;21187;50.976;13.720;2022-11-14T17:59:40;98357.97;;;10.90;52.67
34983;BME280;21187;50.976;13.720;2022-11-14T18:05:01;98348.78;;;10.78;53.03
34983;BME280;21187;50.976;13.720;2022-11-14T18:10:21;98353.66;;;10.73;53.55
34983;BME280;21187;50.976;13.720;2022-11-14T18:15:41;98350.94;;;10.73;53.71
34983;BME280;21187;50.976;13.720;2022-11-14T18:26:30;98333.66;;;10.77;53.02
34983;BME280;21187;50.976;13.720;2022-11-14T18:31:50;98333.91;;;10.72;53.18
34983;BME280;21187;50.976;13.720;2022-11-14T18:37:11;98343.16;;;10.71;53.23
34983;BME280;21187;50.976;13.720;2022-11-14T18:42:31;98336.16;;;10.70;53.31
34983;BME280;21187;50.976;13.720;2022-11-14T18:47:51;98331.81;;;10.65;53.90
34983;BME280;21187;50.976;13.720;2022-11-14T18:53:12;98333.28;;;10.63;53.50
34983;BME280;21187;50.976;13.720;2022-11-14T18:58:32;98320.88;;;10.62;53.64
34983;BME280;21187;50.976;13.720;2022-11-14T19:04:03;98320.44;;;10.60;53.88
34983;BME280;21187;50.976;13.720;2022-11-14T19:09:24;98313.34;;;10.55;54.23
34983;BME280;21187;50.976;13.720;2022-11-14T19:14:44;98311.75;;;10.54;53.51
34983;BME280;21187;50.976;13.720;2022-11-14T19:20:06;98310.97;;;10.54;53.35
34983;BME280;21187;50.976;13.720;2022-11-14T19:25:34;98296.22;;;10.51;53.70
34983;BME280;21187;50.976;13.720;2022-11-14T19:31:01;98299.94;;;10.46;53.92
34983;BME280;21187;50.976;13.720;2022-11-14T19:36:22;98299.19;;;10.33;54.33
34983;BME280;21187;50.976;13.720;2022-11-14T19:42:03;98290.88;;;10.26;53.88
34983;BME280;21187;50.976;13.720;2022-11-14T19:47:23;98301.28;;;10.24;54.42
34983;BME280;21187;50.976;13.720;2022-11-14T19:52:44;98296.22;;;10.23;54.19
34983;BME280;21187;50.976;13.720;2022-11-14T19:58:05;98296.88;;;10.20;54.24
34983;BME280;21187;50.976;13.720;2022-11-14T20:03:25;98293.50;;;10.23;53.59
34983;BME280;21187;50.976;13.720;2022-11-14T20:08:46;98302.41;;;10.23;53.73
34983;BME280;21187;50.976;13.720;2022-11-14T20:14:06;98300.28;;;10.16;54.33
34983;BME280;21187;50.976;13.720;2022-11-14T20:19:27;98302.28;;;10.20;54.20
34983;BME280;21187;50.976;13.720;2022-11-14T20:24:47;98310.22;;;10.12;54.21
34983;BME280;21187;50.976;13.720;2022-11-14T20:30:08;98308.88;;;10.06;54.87
34983;BME280;21187;50.976;13.720;2022-11-14T20:35:28;98302.22;;;10.04;54.94
34983;BME280;21187;50.976;13.720;2022-11-14T20:40:56;98296.63;;;9.96;54.77
34983;BME280;21187;50.976;13.720;2022-11-14T20:46:18;98285.00;;;9.96;54.47
34983;BME280;21187;50.976;13.720;2022-11-14T20:51:39;98290.63;;;9.91;55.11
34983;BME280;21187;50.976;13.720;2022-11-14T20:57:00;98298.00;;;9.78;54.58
34983;BME280;21187;50.976;13.720;2022-11-14T21:02:20;98301.97;;;9.56;55.53
34983;BME280;21187;50.976;13.720;2022-11-14T21:07:41;98295.00;;;9.42;55.42
34983;BME280;21187;50.976;13.720;2022-11-14T21:13:06;98270.69;;;9.42;55.52
34983;BME280;21187;50.976;13.720;2022-11-14T21:18:45;98272.25;;;9.43;55.59
34983;BME280;21187;50.976;13.720;2022-11-14T21:24:07;98278.53;;;9.47;55.55
34983;BME280;21187;50.976;13.720;2022-11-14T21:29:28;98272.91;;;9.53;55.40
34983;BME280;21187;50.976;13.720;2022-11-14T21:34:48;98259.38;;;9.53;55.83
34983;BME280;21187;50.976;13.720;2022-11-14T21:40:10;98270.19;;;9.53;55.76
34983;BME280;21187;50.976;13.720;2022-11-14T21:45:30;98286.34;;;9.49;56.41
34983;BME280;21187;50.976;13.720;2022-11-14T21:50:51;98274.50;;;9.41;56.13
34983;BME280;21187;50.976;13.720;2022-11-14T22:01:31;98280.78;;;8.96;58.28
34983;BME280;21187;50.976;13.720;2022-11-14T22:07:11;98274.94;;;9.06;56.80
34983;BME280;21187;50.976;13.720;2022-11-14T22:12:31;98269.53;;;9.06;57.40
34983;BME280;21187;50.976;13.720;2022-11-14T22:17:54;98278.31;;;9.15;57.10
34983;BME280;21187;50.976;13.720;2022-11-14T22:23:14;98269.78;;;9.26;56.71
34983;BME280;21187;50.976;13.720;2022-11-14T22:28:35;98271.56;;;9.34;55.99
34983;BME280;21187;50.976;13.720;2022-11-14T22:33:56;98278.56;;;9.35;56.14
34983;BME280;21187;50.976;13.720;2022-11-14T22:39:17;98283.50;;;9.21;56.13
34983;BME280;21187;50.976;13.720;2022-11-14T22:44:37;98281.25;;;9.10;57.00
34983;BME280;21187;50.976;13.720;2022-11-14T22:49:58;98284.28;;;9.09;56.30
34983;BME280;21187;50.976;13.720;2022-11-14T22:55:18;98275.50;;;8.99;56.29
34983;BME280;21187;50.976;13.720;2022-11-14T23:00:39;98281.13;;;8.94;56.74
34983;BME280;21187;50.976;13.720;2022-11-14T23:06:04;98271.34;;;8.90;56.49
34983;BME280;21187;50.976;13.720;2022-11-14T23:11:27;98265.94;;;8.90;56.57
34983;BME280;21187;50.976;13.720;2022-11-14T23:16:47;98266.16;;;8.97;56.56
34983;BME280;21187;50.976;13.720;2022-11-14T23:22:08;98256.84;;;9.07;56.20
34983;BME280;21187;50.976;13.720;2022-11-14T23:27:28;98269.53;;;9.06;56.45
34983;BME280;21187;50.976;13.720;2022-11-14T23:32:49;98275.03;;;8.85;56.92
34983;BME280;21187;50.976;13.720;2022-11-14T23:38:09;98263.19;;;8.77;57.31
34983;BME280;21187;50.976;13.720;2022-11-14T23:43:29;98256.34;;;8.80;56.69
34983;BME280;21187;50.976;13.720;2022-11-14T23:48:50;98255.78;;;8.87;57.29
34983;BME280;21187;50.976;13.720;2022-11-14T23:54:12;98262.13;;;8.91;56.65
34983;BME280;21187;50.976;13.720;2022-11-14T23:59:32;98275.38;;;8.96;56.85
